SLE712 NCRG-NZAA
Flight info
| Callsign | SLE712 |
|---|---|
| Flight time | N/A |
| Altitude | 40000 |
| Route | BELIT1R BIXIT DCT APABO |
| Aircraft | C700/M-SBDGHM1RWXY/LB2 |
Departure
| Time | 2026-04-27 01:37 |
|---|---|
| Airport | Rarotonga International Airport (NCRG) |
Arrival
| Time | N/A |
|---|---|
| Airport | Auckland International Airport (NZAA) |
| Time | Latitude | Longitude | Altitude | Speed | Heading |
|---|---|---|---|---|---|
| 2026-04-27 01:37 | -21.27328 | -159.73833 | 8563 ft | 261 kts | 212° |
| 2026-04-27 01:37 | -21.28833 | -159.74918 | 9298 ft | 264 kts | 220° |
| 2026-04-27 01:37 | -21.30089 | -159.76402 | 10041 ft | 276 kts | 232° |
| 2026-04-27 01:38 | -21.31281 | -159.78116 | 10760 ft | 297 kts | 232° |
| 2026-04-27 01:38 | -21.32544 | -159.79915 | 11475 ft | 310 kts | 233° |
| 2026-04-27 01:38 | -21.33860 | -159.81794 | 12208 ft | 315 kts | 233° |
| 2026-04-27 01:38 | -21.35186 | -159.83693 | 12955 ft | 319 kts | 233° |
| 2026-04-27 01:39 | -21.36507 | -159.85587 | 13701 ft | 323 kts | 234° |
| 2026-04-27 01:39 | -21.37860 | -159.87524 | 14385 ft | 325 kts | 233° |
| 2026-04-27 01:39 | -21.39223 | -159.89475 | 15072 ft | 328 kts | 233° |
| 2026-04-27 01:39 | -21.40593 | -159.91439 | 15772 ft | 330 kts | 233° |
| 2026-04-27 01:40 | -21.41971 | -159.93416 | 16488 ft | 332 kts | 233° |
| 2026-04-27 01:40 | -21.43368 | -159.95419 | 17228 ft | 335 kts | 233° |
| 2026-04-27 01:40 | -21.44769 | -159.97430 | 17982 ft | 338 kts | 233° |
| 2026-04-27 01:40 | -21.46170 | -159.99440 | 18672 ft | 342 kts | 233° |
| 2026-04-27 01:41 | -21.47610 | -160.01508 | 19344 ft | 346 kts | 234° |
| 2026-04-27 01:41 | -21.49064 | -160.03598 | 20035 ft | 351 kts | 234° |
| 2026-04-27 01:41 | -21.50537 | -160.05715 | 20740 ft | 355 kts | 234° |
| 2026-04-27 01:41 | -21.52007 | -160.07828 | 21451 ft | 359 kts | 234° |
| 2026-04-27 01:42 | -21.53515 | -160.09997 | 22192 ft | 365 kts | 235° |
| 2026-04-27 01:42 | -21.55035 | -160.12184 | 22944 ft | 369 kts | 235° |
| 2026-04-27 01:42 | -21.56583 | -160.14412 | 23704 ft | 372 kts | 235° |
| 2026-04-27 01:42 | -21.58136 | -160.16648 | 24359 ft | 373 kts | 235° |
| 2026-04-27 01:43 | -21.59691 | -160.18888 | 25024 ft | 375 kts | 235° |
| 2026-04-27 01:43 | -21.61260 | -160.21151 | 25710 ft | 378 kts | 235° |
| 2026-04-27 01:43 | -21.62839 | -160.23429 | 26415 ft | 381 kts | 235° |
| 2026-04-27 01:43 | -21.64412 | -160.25698 | 27131 ft | 383 kts | 235° |
| 2026-04-27 01:44 | -21.66008 | -160.28002 | 27869 ft | 384 kts | 235° |
| 2026-04-27 01:44 | -21.67607 | -160.30310 | 28626 ft | 385 kts | 235° |
| 2026-04-27 01:44 | -21.69208 | -160.32623 | 29408 ft | 384 kts | 234° |
| 2026-04-27 01:44 | -21.70806 | -160.34932 | 30180 ft | 384 kts | 234° |
| 2026-04-27 01:45 | -21.72385 | -160.37215 | 30857 ft | 383 kts | 235° |
| 2026-04-27 01:45 | -21.73972 | -160.39511 | 31558 ft | 381 kts | 235° |
| 2026-04-27 01:45 | -21.75551 | -160.41795 | 32277 ft | 378 kts | 235° |
| 2026-04-27 01:45 | -21.77117 | -160.44062 | 33018 ft | 374 kts | 236° |
| 2026-04-27 01:46 | -21.78662 | -160.46299 | 33772 ft | 369 kts | 236° |
| 2026-04-27 01:46 | -21.80179 | -160.48497 | 34466 ft | 363 kts | 236° |
| 2026-04-27 01:46 | -21.81662 | -160.50645 | 35142 ft | 358 kts | 236° |
| 2026-04-27 01:46 | -21.83134 | -160.52781 | 35831 ft | 352 kts | 235° |
| 2026-04-27 01:47 | -21.84596 | -160.54902 | 36321 ft | 353 kts | 235° |
| 2026-04-27 01:47 | -21.86053 | -160.57017 | 36816 ft | 351 kts | 235° |
| 2026-04-27 01:47 | -21.87507 | -160.59128 | 37317 ft | 349 kts | 235° |
| 2026-04-27 01:47 | -21.88954 | -160.61228 | 37835 ft | 346 kts | 235° |
| 2026-04-27 01:48 | -21.90383 | -160.63305 | 38281 ft | 345 kts | 234° |
| 2026-04-27 01:48 | -21.91813 | -160.65383 | 38674 ft | 344 kts | 234° |
| 2026-04-27 01:48 | -21.93233 | -160.67448 | 39035 ft | 342 kts | 234° |
| 2026-04-27 01:48 | -21.94645 | -160.69500 | 39382 ft | 340 kts | 234° |
| 2026-04-27 01:49 | -21.96028 | -160.71515 | 39729 ft | 337 kts | 234° |
| 2026-04-27 01:49 | -21.97424 | -160.73546 | 39994 ft | 337 kts | 234° |
| 2026-04-27 01:49 | -21.98908 | -160.75548 | 39989 ft | 345 kts | 232° |
| 2026-04-27 01:50 | -22.01974 | -160.79623 | 39999 ft | 358 kts | 232° |
| 2026-04-27 01:50 | -22.05176 | -160.83896 | 40003 ft | 371 kts | 232° |
| 2026-04-27 01:51 | -22.08475 | -160.88294 | 40002 ft | 384 kts | 232° |
| 2026-04-27 01:51 | -22.11885 | -160.92847 | 40000 ft | 396 kts | 232° |
| 2026-04-27 01:52 | -22.15374 | -160.97509 | 40002 ft | 407 kts | 232° |
| 2026-04-27 01:52 | -22.18986 | -161.02339 | 40005 ft | 417 kts | 232° |
| 2026-04-27 01:53 | -22.22652 | -161.07246 | 40006 ft | 427 kts | 232° |
| 2026-04-27 01:53 | -22.26416 | -161.12289 | 40007 ft | 430 kts | 232° |
| 2026-04-27 01:54 | -22.30130 | -161.17269 | 40023 ft | 425 kts | 232° |
| 2026-04-27 01:54 | -22.33820 | -161.22223 | 39998 ft | 420 kts | 232° |
| 2026-04-27 01:55 | -22.37504 | -161.27172 | 40001 ft | 424 kts | 232° |
| 2026-04-27 01:55 | -22.41199 | -161.32141 | 40006 ft | 427 kts | 232° |
| 2026-04-27 01:56 | -22.46769 | -161.39640 | 40008 ft | 423 kts | 232° |
| 2026-04-27 01:56 | -22.50427 | -161.44571 | 40001 ft | 421 kts | 232° |
| 2026-04-27 01:57 | -22.54089 | -161.49514 | 40005 ft | 423 kts | 232° |
| 2026-04-27 01:57 | -22.57787 | -161.54508 | 40016 ft | 426 kts | 232° |
| 2026-04-27 01:58 | -22.61499 | -161.59525 | 40006 ft | 425 kts | 232° |
| 2026-04-27 01:58 | -22.65171 | -161.64495 | 40008 ft | 421 kts | 232° |
| 2026-04-27 01:59 | -22.68827 | -161.69446 | 40010 ft | 420 kts | 233° |
| 2026-04-27 01:59 | -22.72467 | -161.74382 | 40009 ft | 418 kts | 233° |
| 2026-04-27 02:00 | -22.76077 | -161.79281 | 40008 ft | 419 kts | 233° |
| 2026-04-27 02:00 | -22.79727 | -161.84238 | 40011 ft | 421 kts | 233° |
| 2026-04-27 02:01 | -22.83372 | -161.89193 | 40021 ft | 422 kts | 233° |
| 2026-04-27 02:01 | -22.87043 | -161.94191 | 40022 ft | 422 kts | 233° |
| 2026-04-27 02:02 | -22.90690 | -161.99156 | 40013 ft | 419 kts | 233° |
| 2026-04-27 02:02 | -22.94308 | -162.04091 | 40011 ft | 417 kts | 233° |
| 2026-04-27 02:03 | -22.97937 | -162.09044 | 40017 ft | 420 kts | 233° |
| 2026-04-27 02:03 | -23.01565 | -162.14000 | 40020 ft | 422 kts | 233° |
| 2026-04-27 02:04 | -23.05222 | -162.19001 | 40023 ft | 421 kts | 233° |
| 2026-04-27 02:04 | -23.08827 | -162.23934 | 40015 ft | 414 kts | 233° |
| 2026-04-27 02:05 | -23.12409 | -162.28844 | 40015 ft | 419 kts | 234° |
| 2026-04-27 02:05 | -23.16048 | -162.33833 | 40022 ft | 422 kts | 234° |
| 2026-04-27 02:06 | -23.19681 | -162.38821 | 40021 ft | 418 kts | 234° |
| 2026-04-27 02:06 | -23.23283 | -162.43771 | 40018 ft | 416 kts | 234° |
| 2026-04-27 02:07 | -23.26277 | -162.47889 | 40019 ft | 418 kts | 234° |
| 2026-04-27 02:07 | -23.30492 | -162.53691 | 40023 ft | 421 kts | 234° |
| 2026-04-27 02:08 | -23.33510 | -162.57849 | 40027 ft | 422 kts | 234° |
| 2026-04-27 02:08 | -23.37142 | -162.62859 | 40020 ft | 420 kts | 234° |
| 2026-04-27 02:09 | -23.40737 | -162.67821 | 40039 ft | 419 kts | 234° |
| 2026-04-27 02:09 | -23.44342 | -162.72805 | 40036 ft | 417 kts | 234° |
| 2026-04-27 02:10 | -23.47925 | -162.77760 | 40033 ft | 416 kts | 234° |
| 2026-04-27 02:10 | -23.51494 | -162.82704 | 40032 ft | 418 kts | 234° |
| 2026-04-27 02:11 | -23.55101 | -162.87702 | 40044 ft | 421 kts | 234° |
| 2026-04-27 02:11 | -23.58734 | -162.92742 | 40043 ft | 420 kts | 234° |
| 2026-04-27 02:12 | -23.62315 | -162.97716 | 40033 ft | 418 kts | 234° |
| 2026-04-27 02:12 | -23.65917 | -163.02724 | 40033 ft | 418 kts | 234° |
| 2026-04-27 02:13 | -23.69487 | -163.07691 | 40035 ft | 418 kts | 234° |
| 2026-04-27 02:13 | -23.73088 | -163.12708 | 40036 ft | 419 kts | 234° |
| 2026-04-27 02:14 | -23.76691 | -163.17731 | 40045 ft | 420 kts | 234° |
| 2026-04-27 02:14 | -23.80270 | -163.22727 | 40044 ft | 420 kts | 234° |
| 2026-04-27 02:15 | -23.83880 | -163.27770 | 40044 ft | 421 kts | 234° |
| 2026-04-27 02:15 | -23.87491 | -163.32820 | 40048 ft | 421 kts | 234° |
| 2026-04-27 02:16 | -23.91085 | -163.37852 | 40050 ft | 422 kts | 234° |
| 2026-04-27 02:16 | -23.94701 | -163.42918 | 40048 ft | 423 kts | 234° |
| 2026-04-27 02:17 | -23.98305 | -163.47975 | 40048 ft | 423 kts | 234° |
| 2026-04-27 02:17 | -24.01918 | -163.53047 | 40048 ft | 421 kts | 234° |
| 2026-04-27 02:18 | -24.05504 | -163.58089 | 40052 ft | 419 kts | 235° |
| 2026-04-27 02:18 | -24.09074 | -163.63112 | 40047 ft | 418 kts | 235° |
| 2026-04-27 02:19 | -24.12650 | -163.68149 | 40053 ft | 421 kts | 235° |
| 2026-04-27 02:19 | -24.16228 | -163.73193 | 40052 ft | 416 kts | 235° |
| 2026-04-27 02:20 | -24.19764 | -163.78186 | 40047 ft | 414 kts | 235° |
| 2026-04-27 02:20 | -24.23292 | -163.83170 | 40049 ft | 418 kts | 235° |
| 2026-04-27 02:21 | -24.26873 | -163.88235 | 40053 ft | 420 kts | 235° |
| 2026-04-27 02:21 | -24.30421 | -163.93257 | 40058 ft | 418 kts | 235° |
| 2026-04-27 02:22 | -24.33978 | -163.98298 | 40053 ft | 416 kts | 235° |
| 2026-04-27 02:22 | -24.37510 | -164.03310 | 40048 ft | 415 kts | 235° |
| 2026-04-27 02:23 | -24.41035 | -164.08317 | 40050 ft | 417 kts | 235° |
| 2026-04-27 02:23 | -24.44602 | -164.13387 | 40059 ft | 420 kts | 235° |
| 2026-04-27 02:24 | -24.48153 | -164.18439 | 40061 ft | 419 kts | 235° |
| 2026-04-27 02:24 | -24.51690 | -164.23476 | 40056 ft | 412 kts | 236° |
| 2026-04-27 02:25 | -24.55178 | -164.28453 | 40050 ft | 412 kts | 236° |
| 2026-04-27 02:25 | -24.58695 | -164.33473 | 40054 ft | 416 kts | 236° |
| 2026-04-27 02:26 | -24.62207 | -164.38490 | 40057 ft | 415 kts | 236° |
| 2026-04-27 02:26 | -24.65718 | -164.43513 | 40053 ft | 412 kts | 236° |
| 2026-04-27 02:27 | -24.69208 | -164.48511 | 40050 ft | 411 kts | 236° |
| 2026-04-27 02:27 | -24.72681 | -164.53490 | 40053 ft | 414 kts | 236° |
| 2026-04-27 02:28 | -24.76200 | -164.58539 | 40057 ft | 416 kts | 236° |
| 2026-04-27 02:28 | -24.79718 | -164.63591 | 40056 ft | 414 kts | 236° |
| 2026-04-27 02:29 | -24.83212 | -164.68616 | 40053 ft | 411 kts | 236° |
| 2026-04-27 02:29 | -24.86667 | -164.73587 | 40064 ft | 409 kts | 236° |
| 2026-04-27 02:30 | -24.90116 | -164.78561 | 40058 ft | 409 kts | 236° |
| 2026-04-27 02:30 | -24.93585 | -164.83563 | 40061 ft | 411 kts | 236° |
| 2026-04-27 02:31 | -24.97074 | -164.88601 | 40066 ft | 414 kts | 236° |
| 2026-04-27 02:31 | -25.00538 | -164.93606 | 40067 ft | 412 kts | 236° |
| 2026-04-27 02:32 | -25.04000 | -164.98616 | 40065 ft | 409 kts | 236° |
| 2026-04-27 02:32 | -25.07442 | -165.03602 | 40060 ft | 408 kts | 236° |
| 2026-04-27 02:33 | -25.10894 | -165.08608 | 40064 ft | 411 kts | 236° |
| 2026-04-27 02:33 | -25.14353 | -165.13627 | 40070 ft | 413 kts | 236° |
| 2026-04-27 02:34 | -25.17826 | -165.18673 | 40069 ft | 410 kts | 236° |
| 2026-04-27 02:34 | -25.21267 | -165.23678 | 40063 ft | 407 kts | 237° |
| 2026-04-27 02:35 | -25.24652 | -165.28608 | 40061 ft | 404 kts | 237° |
| 2026-04-27 02:35 | -25.28068 | -165.33588 | 40068 ft | 407 kts | 237° |
| 2026-04-27 02:36 | -25.31486 | -165.38575 | 40069 ft | 410 kts | 237° |
| 2026-04-27 02:36 | -25.34928 | -165.43601 | 40070 ft | 408 kts | 237° |
| 2026-04-27 02:37 | -25.38344 | -165.48597 | 40069 ft | 404 kts | 237° |
| 2026-04-27 02:37 | -25.41713 | -165.53530 | 40066 ft | 405 kts | 237° |
| 2026-04-27 02:38 | -25.45118 | -165.58519 | 40072 ft | 407 kts | 237° |
| 2026-04-27 02:38 | -25.48526 | -165.63519 | 40076 ft | 409 kts | 237° |
| 2026-04-27 02:39 | -25.51940 | -165.68535 | 40072 ft | 406 kts | 237° |
| 2026-04-27 02:39 | -25.55326 | -165.73505 | 40068 ft | 403 kts | 237° |
| 2026-04-27 02:40 | -25.58706 | -165.78482 | 40077 ft | 401 kts | 237° |
| 2026-04-27 02:40 | -25.62064 | -165.83431 | 40076 ft | 403 kts | 237° |
| 2026-04-27 02:41 | -25.65421 | -165.88381 | 40076 ft | 405 kts | 237° |
| 2026-04-27 02:41 | -25.68815 | -165.93389 | 40082 ft | 406 kts | 237° |
| 2026-04-27 02:42 | -25.72194 | -165.98383 | 40077 ft | 403 kts | 237° |
| 2026-04-27 02:42 | -25.75548 | -166.03345 | 40074 ft | 401 kts | 237° |
| 2026-04-27 02:43 | -25.78906 | -166.08320 | 40077 ft | 403 kts | 237° |
| 2026-04-27 02:43 | -25.82256 | -166.13287 | 40069 ft | 406 kts | 237° |
| 2026-04-27 02:44 | -25.85641 | -166.18309 | 40079 ft | 403 kts | 238° |
| 2026-04-27 02:44 | -25.88975 | -166.23263 | 40075 ft | 399 kts | 238° |
| 2026-04-27 02:45 | -25.92302 | -166.28214 | 40085 ft | 403 kts | 238° |
| 2026-04-27 02:45 | -25.95661 | -166.33213 | 40087 ft | 403 kts | 238° |
| 2026-04-27 02:46 | -25.99011 | -166.38207 | 40087 ft | 403 kts | 238° |
| 2026-04-27 02:46 | -26.02339 | -166.43172 | 40087 ft | 402 kts | 238° |
| 2026-04-27 02:47 | -26.05686 | -166.48172 | 40087 ft | 402 kts | 238° |
| 2026-04-27 02:47 | -26.09035 | -166.53181 | 40083 ft | 400 kts | 238° |
| 2026-04-27 02:48 | -26.12338 | -166.58124 | 40079 ft | 396 kts | 238° |
| 2026-04-27 02:48 | -26.15607 | -166.63027 | 40078 ft | 399 kts | 238° |
| 2026-04-27 02:49 | -26.18936 | -166.68020 | 40083 ft | 402 kts | 238° |
| 2026-04-27 02:49 | -26.22265 | -166.73017 | 40082 ft | 400 kts | 238° |
| 2026-04-27 02:50 | -26.25568 | -166.77984 | 40105 ft | 397 kts | 238° |
| 2026-04-27 02:50 | -26.28870 | -166.82959 | 40083 ft | 405 kts | 238° |
| 2026-04-27 02:51 | -26.32255 | -166.88058 | 40087 ft | 413 kts | 238° |
| 2026-04-27 02:51 | -26.35691 | -166.93239 | 40088 ft | 414 kts | 238° |
| 2026-04-27 02:52 | -26.39094 | -166.98378 | 40083 ft | 410 kts | 238° |
| 2026-04-27 02:52 | -26.42475 | -167.03492 | 40080 ft | 410 kts | 238° |
| 2026-04-27 02:53 | -26.45858 | -167.08613 | 40084 ft | 414 kts | 238° |
| 2026-04-27 02:53 | -26.49292 | -167.13815 | 40088 ft | 414 kts | 238° |
| 2026-04-27 02:54 | -26.52681 | -167.18956 | 40083 ft | 411 kts | 238° |
| 2026-04-27 02:54 | -26.56064 | -167.24094 | 40070 ft | 410 kts | 238° |
| 2026-04-27 02:55 | -26.59485 | -167.29301 | 40072 ft | 418 kts | 238° |
| 2026-04-27 02:55 | -26.62879 | -167.34451 | 40078 ft | 401 kts | 239° |
| 2026-04-27 02:56 | -26.65596 | -167.38605 | 40068 ft | 398 kts | 239° |
| 2026-04-27 02:56 | -26.68912 | -167.43668 | 40076 ft | 407 kts | 239° |
| 2026-04-27 02:57 | -26.72270 | -167.48789 | 40083 ft | 409 kts | 239° |
| 2026-04-27 02:57 | -26.75624 | -167.53918 | 40079 ft | 405 kts | 239° |
| 2026-04-27 02:58 | -26.78947 | -167.59004 | 40075 ft | 405 kts | 239° |
| 2026-04-27 02:58 | -26.82256 | -167.64075 | 40083 ft | 406 kts | 240° |
| 2026-04-27 02:59 | -26.85591 | -167.69191 | 40083 ft | 406 kts | 240° |
| 2026-04-27 02:59 | -26.88922 | -167.74308 | 40087 ft | 406 kts | 240° |
| 2026-04-27 03:00 | -26.92234 | -167.79402 | 40084 ft | 406 kts | 240° |
| 2026-04-27 03:00 | -26.95550 | -167.84502 | 40080 ft | 403 kts | 240° |
| 2026-04-27 03:01 | -26.98823 | -167.89547 | 40076 ft | 398 kts | 240° |
| 2026-04-27 03:01 | -27.02093 | -167.94596 | 40079 ft | 401 kts | 240° |
| 2026-04-27 03:02 | -27.05372 | -167.99658 | 40087 ft | 402 kts | 240° |
| 2026-04-27 03:02 | -27.08656 | -168.04735 | 40087 ft | 400 kts | 240° |
| 2026-04-27 03:03 | -27.13516 | -168.12262 | 40080 ft | 398 kts | 240° |
| 2026-04-27 03:04 | -27.16780 | -168.17326 | 40078 ft | 400 kts | 240° |
| 2026-04-27 03:04 | -27.20052 | -168.22405 | 40086 ft | 403 kts | 240° |
| 2026-04-27 03:05 | -27.23322 | -168.27486 | 40086 ft | 402 kts | 240° |
| 2026-04-27 03:05 | -27.26594 | -168.32577 | 40082 ft | 399 kts | 240° |
| 2026-04-27 03:06 | -27.29839 | -168.37633 | 40081 ft | 397 kts | 240° |
| 2026-04-27 03:06 | -27.33064 | -168.42665 | 40082 ft | 400 kts | 240° |
| 2026-04-27 03:07 | -27.36332 | -168.47768 | 40083 ft | 403 kts | 240° |
| 2026-04-27 03:07 | -27.39605 | -168.52882 | 40084 ft | 401 kts | 240° |
| 2026-04-27 03:08 | -27.42849 | -168.57960 | 40081 ft | 398 kts | 241° |
| 2026-04-27 03:08 | -27.46059 | -168.62991 | 40079 ft | 398 kts | 241° |
| 2026-04-27 03:09 | -27.49307 | -168.68088 | 40083 ft | 400 kts | 241° |
| 2026-04-27 03:09 | -27.52572 | -168.73213 | 40077 ft | 403 kts | 241° |
| 2026-04-27 03:10 | -27.55820 | -168.78320 | 40075 ft | 403 kts | 241° |
| 2026-04-27 03:10 | -27.59079 | -168.83450 | 40074 ft | 400 kts | 241° |
| 2026-04-27 03:11 | -27.62309 | -168.88540 | 40091 ft | 398 kts | 242° |
| 2026-04-27 03:11 | -27.65530 | -168.93624 | 40081 ft | 398 kts | 242° |
| 2026-04-27 03:12 | -27.68736 | -168.98688 | 40081 ft | 398 kts | 242° |
| 2026-04-27 03:12 | -27.71958 | -169.03784 | 40081 ft | 399 kts | 242° |
| 2026-04-27 03:13 | -27.75176 | -169.08878 | 40081 ft | 397 kts | 243° |
| 2026-04-27 03:13 | -27.78380 | -169.13957 | 40076 ft | 395 kts | 243° |
| 2026-04-27 03:14 | -27.81552 | -169.18993 | 40075 ft | 395 kts | 243° |
| 2026-04-27 03:14 | -27.84741 | -169.24060 | 40076 ft | 396 kts | 243° |
| 2026-04-27 03:15 | -27.87923 | -169.29123 | 40077 ft | 397 kts | 243° |
| 2026-04-27 03:15 | -27.91123 | -169.34218 | 40081 ft | 397 kts | 243° |
| 2026-04-27 03:16 | -27.94333 | -169.39337 | 40079 ft | 398 kts | 243° |
| 2026-04-27 03:16 | -27.97523 | -169.44428 | 40074 ft | 396 kts | 243° |
| 2026-04-27 03:17 | -28.00679 | -169.49470 | 40064 ft | 390 kts | 243° |
| 2026-04-27 03:17 | -28.03822 | -169.54507 | 40068 ft | 393 kts | 243° |
| 2026-04-27 03:18 | -28.06975 | -169.59554 | 40074 ft | 396 kts | 243° |
| 2026-04-27 03:18 | -28.10147 | -169.64639 | 40075 ft | 394 kts | 243° |
| 2026-04-27 03:19 | -28.13305 | -169.69712 | 40072 ft | 392 kts | 243° |
| 2026-04-27 03:19 | -28.16438 | -169.74750 | 40070 ft | 390 kts | 243° |
| 2026-04-27 03:20 | -28.19554 | -169.79767 | 40065 ft | 393 kts | 243° |
| 2026-04-27 03:20 | -28.22711 | -169.84854 | 40069 ft | 395 kts | 243° |
| 2026-04-27 03:21 | -28.25874 | -169.89955 | 40070 ft | 394 kts | 243° |
| 2026-04-27 03:21 | -28.29013 | -169.95026 | 40068 ft | 392 kts | 243° |
| 2026-04-27 03:22 | -28.32121 | -170.00053 | 40076 ft | 390 kts | 244° |
| 2026-04-27 03:22 | -28.35237 | -170.05099 | 40072 ft | 391 kts | 244° |
| 2026-04-27 03:23 | -28.38372 | -170.10183 | 40078 ft | 393 kts | 244° |
| 2026-04-27 03:23 | -28.41526 | -170.15300 | 40078 ft | 395 kts | 244° |
| 2026-04-27 03:24 | -28.44651 | -170.20374 | 40072 ft | 392 kts | 244° |
| 2026-04-27 03:24 | -28.47771 | -170.25454 | 40069 ft | 390 kts | 244° |
| 2026-04-27 03:25 | -28.50858 | -170.30484 | 40071 ft | 390 kts | 244° |
| 2026-04-27 03:25 | -28.53977 | -170.35571 | 40069 ft | 393 kts | 244° |
| 2026-04-27 03:26 | -28.57120 | -170.40701 | 40083 ft | 395 kts | 244° |
| 2026-04-27 03:26 | -28.60233 | -170.45787 | 40077 ft | 392 kts | 244° |
| 2026-04-27 03:27 | -28.63340 | -170.50872 | 40068 ft | 390 kts | 245° |
| 2026-04-27 03:27 | -28.66431 | -170.55937 | 40076 ft | 388 kts | 245° |
| 2026-04-27 03:28 | -28.69503 | -170.60983 | 40072 ft | 390 kts | 245° |
| 2026-04-27 03:28 | -28.72614 | -170.66090 | 40076 ft | 393 kts | 245° |
| 2026-04-27 03:29 | -28.75741 | -170.71230 | 40072 ft | 392 kts | 245° |
| 2026-04-27 03:29 | -28.78823 | -170.76305 | 40070 ft | 390 kts | 245° |
| 2026-04-27 03:30 | -28.81884 | -170.81352 | 40070 ft | 387 kts | 245° |
| 2026-04-27 03:30 | -28.84960 | -170.86432 | 40073 ft | 389 kts | 245° |
| 2026-04-27 03:31 | -28.88033 | -170.91509 | 40072 ft | 391 kts | 245° |
| 2026-04-27 03:31 | -28.91134 | -170.96637 | 40073 ft | 390 kts | 245° |
| 2026-04-27 03:32 | -28.94208 | -171.01731 | 40071 ft | 388 kts | 245° |
| 2026-04-27 03:32 | -28.97262 | -171.06803 | 40072 ft | 393 kts | 245° |
| 2026-04-27 03:33 | -29.00387 | -171.11987 | 40075 ft | 395 kts | 245° |
| 2026-04-27 03:33 | -29.03491 | -171.17142 | 40072 ft | 391 kts | 245° |
| 2026-04-27 03:34 | -29.06555 | -171.22251 | 40068 ft | 390 kts | 245° |
| 2026-04-27 03:34 | -29.09625 | -171.27367 | 40077 ft | 393 kts | 245° |
| 2026-04-27 03:35 | -29.12719 | -171.32527 | 40073 ft | 392 kts | 245° |
| 2026-04-27 03:35 | -29.15783 | -171.37646 | 40067 ft | 387 kts | 245° |
| 2026-04-27 03:36 | -29.18818 | -171.42730 | 40069 ft | 390 kts | 245° |
| 2026-04-27 03:36 | -29.21916 | -171.47916 | 40076 ft | 393 kts | 245° |
| 2026-04-27 03:37 | -29.24979 | -171.53050 | 40073 ft | 391 kts | 245° |
| 2026-04-27 03:37 | -29.28037 | -171.58187 | 40077 ft | 390 kts | 245° |
| 2026-04-27 03:38 | -29.31110 | -171.63357 | 40076 ft | 392 kts | 245° |
| 2026-04-27 03:38 | -29.34176 | -171.68515 | 40081 ft | 393 kts | 245° |
| 2026-04-27 03:39 | -29.37244 | -171.73684 | 40079 ft | 390 kts | 245° |
| 2026-04-27 03:39 | -29.40273 | -171.78796 | 40077 ft | 388 kts | 245° |
| 2026-04-27 03:40 | -29.43295 | -171.83906 | 40077 ft | 390 kts | 245° |
| 2026-04-27 03:40 | -29.46352 | -171.89077 | 40080 ft | 392 kts | 245° |
| 2026-04-27 03:41 | -29.49429 | -171.94288 | 40087 ft | 393 kts | 245° |
| 2026-04-27 03:41 | -29.52465 | -171.99434 | 40085 ft | 390 kts | 245° |
| 2026-04-27 03:42 | -29.55498 | -172.04587 | 40082 ft | 387 kts | 245° |
| 2026-04-27 03:42 | -29.58505 | -172.09703 | 40082 ft | 389 kts | 245° |
| 2026-04-27 03:43 | -29.61558 | -172.14904 | 40087 ft | 395 kts | 245° |
| 2026-04-27 03:43 | -29.64128 | -172.19280 | 40087 ft | 397 kts | 245° |
| 2026-04-27 03:44 | -29.67205 | -172.24528 | 40091 ft | 395 kts | 245° |
| 2026-04-27 03:44 | -29.70254 | -172.29739 | 40089 ft | 393 kts | 245° |
| 2026-04-27 03:45 | -29.73300 | -172.34950 | 40093 ft | 391 kts | 245° |
| 2026-04-27 03:45 | -29.76338 | -172.40157 | 40097 ft | 392 kts | 245° |
| 2026-04-27 03:46 | -29.79407 | -172.45423 | 40090 ft | 398 kts | 245° |
| 2026-04-27 03:46 | -29.82482 | -172.50697 | 40093 ft | 397 kts | 245° |
| 2026-04-27 03:47 | -29.85545 | -172.55967 | 40096 ft | 394 kts | 245° |
| 2026-04-27 03:47 | -29.88571 | -172.61177 | 40093 ft | 393 kts | 245° |
| 2026-04-27 03:48 | -29.91623 | -172.66442 | 40103 ft | 397 kts | 245° |
| 2026-04-27 03:48 | -29.94726 | -172.71801 | 40099 ft | 404 kts | 245° |
| 2026-04-27 03:49 | -29.97837 | -172.77169 | 40100 ft | 401 kts | 245° |
| 2026-04-27 03:49 | -30.00899 | -172.82474 | 40094 ft | 397 kts | 244° |
| 2026-04-27 03:50 | -30.03953 | -172.87769 | 40091 ft | 397 kts | 244° |
| 2026-04-27 03:50 | -30.07036 | -172.93121 | 40095 ft | 400 kts | 244° |
| 2026-04-27 03:51 | -30.10126 | -172.98488 | 40099 ft | 401 kts | 244° |
| 2026-04-27 03:51 | -30.13207 | -173.03848 | 40096 ft | 399 kts | 244° |
| 2026-04-27 03:52 | -30.16250 | -173.09151 | 40094 ft | 397 kts | 244° |
| 2026-04-27 03:52 | -30.19298 | -173.14470 | 40092 ft | 396 kts | 244° |
| 2026-04-27 03:53 | -30.22359 | -173.19820 | 40128 ft | 399 kts | 244° |
| 2026-04-27 03:53 | -30.25432 | -173.25197 | 40097 ft | 405 kts | 244° |
| 2026-04-27 03:54 | -30.28535 | -173.30627 | 40101 ft | 404 kts | 244° |
| 2026-04-27 03:54 | -30.31630 | -173.36057 | 40096 ft | 403 kts | 244° |
| 2026-04-27 03:55 | -30.34705 | -173.41458 | 40093 ft | 401 kts | 244° |
| 2026-04-27 03:55 | -30.37768 | -173.46847 | 40086 ft | 401 kts | 244° |
| 2026-04-27 03:56 | -30.40843 | -173.52264 | 40093 ft | 403 kts | 244° |
| 2026-04-27 03:56 | -30.43917 | -173.57683 | 40093 ft | 406 kts | 244° |
| 2026-04-27 03:57 | -30.47020 | -173.63163 | 40093 ft | 404 kts | 244° |
| 2026-04-27 03:57 | -30.50090 | -173.68592 | 40090 ft | 401 kts | 244° |
| 2026-04-27 03:58 | -30.53146 | -173.74004 | 40088 ft | 400 kts | 244° |
| 2026-04-27 03:58 | -30.56183 | -173.79392 | 40087 ft | 402 kts | 244° |
| 2026-04-27 03:59 | -30.59258 | -173.84852 | 40092 ft | 405 kts | 244° |
| 2026-04-27 03:59 | -30.62326 | -173.90305 | 40094 ft | 405 kts | 244° |
| 2026-04-27 04:00 | -30.65389 | -173.95755 | 40080 ft | 399 kts | 244° |
| 2026-04-27 04:00 | -30.68409 | -174.01145 | 40075 ft | 398 kts | 244° |
| 2026-04-27 04:01 | -30.71431 | -174.06543 | 40074 ft | 402 kts | 244° |
| 2026-04-27 04:01 | -30.74489 | -174.12006 | 40077 ft | 402 kts | 244° |
| 2026-04-27 04:02 | -30.77525 | -174.17442 | 40074 ft | 399 kts | 244° |
| 2026-04-27 04:02 | -30.80541 | -174.22849 | 40068 ft | 397 kts | 244° |
| 2026-04-27 04:03 | -30.83558 | -174.28269 | 40090 ft | 400 kts | 244° |
| 2026-04-27 04:03 | -30.86599 | -174.33737 | 40078 ft | 408 kts | 244° |
| 2026-04-27 04:04 | -30.89683 | -174.39282 | 40064 ft | 405 kts | 244° |
| 2026-04-27 04:04 | -30.92734 | -174.44786 | 40059 ft | 402 kts | 244° |
| 2026-04-27 04:05 | -30.95757 | -174.50246 | 40064 ft | 404 kts | 244° |
| 2026-04-27 04:05 | -30.98823 | -174.55788 | 40065 ft | 407 kts | 244° |
| 2026-04-27 04:06 | -31.01895 | -174.61347 | 40067 ft | 406 kts | 244° |
| 2026-04-27 04:06 | -31.04924 | -174.66840 | 40062 ft | 404 kts | 244° |
| 2026-04-27 04:07 | -31.09474 | -174.75104 | 40062 ft | 403 kts | 244° |
| 2026-04-27 04:07 | -31.12512 | -174.80633 | 40065 ft | 405 kts | 244° |
| 2026-04-27 04:08 | -31.15545 | -174.86159 | 40061 ft | 409 kts | 243° |
| 2026-04-27 04:08 | -31.18626 | -174.91779 | 40065 ft | 409 kts | 243° |
| 2026-04-27 04:09 | -31.21687 | -174.97370 | 40062 ft | 407 kts | 243° |
| 2026-04-27 04:09 | -31.24704 | -175.02892 | 40060 ft | 404 kts | 244° |
| 2026-04-27 04:10 | -31.27739 | -175.08455 | 40061 ft | 405 kts | 244° |
| 2026-04-27 04:10 | -31.30778 | -175.14031 | 40057 ft | 406 kts | 244° |
| 2026-04-27 04:11 | -31.33803 | -175.19592 | 40065 ft | 407 kts | 244° |
| 2026-04-27 04:11 | -31.36854 | -175.25206 | 40066 ft | 408 kts | 244° |
| 2026-04-27 04:12 | -31.39901 | -175.30821 | 40060 ft | 408 kts | 244° |
| 2026-04-27 04:12 | -31.42941 | -175.36433 | 40060 ft | 407 kts | 244° |
| 2026-04-27 04:13 | -31.45962 | -175.42019 | 40058 ft | 410 kts | 243° |
| 2026-04-27 04:13 | -31.49031 | -175.47697 | 40056 ft | 412 kts | 243° |
| 2026-04-27 04:14 | -31.52073 | -175.53334 | 40056 ft | 410 kts | 243° |
| 2026-04-27 04:14 | -31.55114 | -175.58983 | 40051 ft | 408 kts | 244° |
| 2026-04-27 04:15 | -31.58138 | -175.64604 | 40053 ft | 407 kts | 244° |
| 2026-04-27 04:15 | -31.61145 | -175.70206 | 40056 ft | 410 kts | 244° |
| 2026-04-27 04:16 | -31.64192 | -175.75887 | 40054 ft | 412 kts | 244° |
| 2026-04-27 04:16 | -31.67243 | -175.81581 | 40053 ft | 410 kts | 243° |
| 2026-04-27 04:17 | -31.70273 | -175.87249 | 40054 ft | 407 kts | 244° |
| 2026-04-27 04:17 | -31.73258 | -175.92843 | 40048 ft | 407 kts | 244° |
| 2026-04-27 04:18 | -31.76286 | -175.98525 | 40059 ft | 413 kts | 243° |
| 2026-04-27 04:18 | -31.79343 | -176.04262 | 40062 ft | 412 kts | 243° |
| 2026-04-27 04:19 | -31.82379 | -176.09976 | 40061 ft | 411 kts | 244° |
| 2026-04-27 04:19 | -31.85378 | -176.15626 | 40058 ft | 409 kts | 244° |
| 2026-04-27 04:20 | -31.88393 | -176.21317 | 40055 ft | 410 kts | 244° |
| 2026-04-27 04:20 | -31.91435 | -176.27069 | 40063 ft | 416 kts | 244° |
| 2026-04-27 04:21 | -31.94457 | -176.32781 | 40063 ft | 411 kts | 244° |
| 2026-04-27 04:21 | -31.97467 | -176.38493 | 40059 ft | 410 kts | 244° |
| 2026-04-27 04:22 | -32.00487 | -176.44225 | 40061 ft | 413 kts | 244° |
| 2026-04-27 04:22 | -32.03525 | -176.50001 | 40064 ft | 417 kts | 244° |
| 2026-04-27 04:23 | -32.06556 | -176.55770 | 40068 ft | 415 kts | 244° |
| 2026-04-27 04:23 | -32.09583 | -176.61543 | 40068 ft | 412 kts | 244° |
| 2026-04-27 04:24 | -32.12590 | -176.67288 | 40063 ft | 411 kts | 244° |
| 2026-04-27 04:24 | -32.15608 | -176.73063 | 40068 ft | 414 kts | 244° |
| 2026-04-27 04:25 | -32.18623 | -176.78839 | 40074 ft | 416 kts | 244° |
| 2026-04-27 04:25 | -32.21659 | -176.84663 | 40069 ft | 415 kts | 244° |
| 2026-04-27 04:26 | -32.24667 | -176.90443 | 40060 ft | 411 kts | 244° |
| 2026-04-27 04:26 | -32.27662 | -176.96210 | 40063 ft | 412 kts | 244° |
| 2026-04-27 04:27 | -32.30662 | -177.01993 | 40064 ft | 416 kts | 244° |
| 2026-04-27 04:27 | -32.33700 | -177.07858 | 40071 ft | 417 kts | 244° |
| 2026-04-27 04:28 | -32.36713 | -177.13681 | 40068 ft | 413 kts | 244° |
| 2026-04-27 04:28 | -32.39683 | -177.19436 | 40071 ft | 412 kts | 244° |
| 2026-04-27 04:29 | -32.42682 | -177.25253 | 40071 ft | 415 kts | 244° |
| 2026-04-27 04:29 | -32.45702 | -177.31120 | 40073 ft | 418 kts | 244° |
| 2026-04-27 04:30 | -32.48720 | -177.36990 | 40076 ft | 415 kts | 244° |
| 2026-04-27 04:30 | -32.51688 | -177.42775 | 40073 ft | 411 kts | 244° |
| 2026-04-27 04:31 | -32.54659 | -177.48578 | 40071 ft | 413 kts | 244° |
| 2026-04-27 04:31 | -32.57659 | -177.54440 | 40074 ft | 416 kts | 244° |
| 2026-04-27 04:32 | -32.60651 | -177.60298 | 40075 ft | 418 kts | 244° |
| 2026-04-27 04:32 | -32.63168 | -177.65231 | 40078 ft | 415 kts | 244° |
| 2026-04-27 04:33 | -32.66125 | -177.71039 | 40076 ft | 412 kts | 244° |
| 2026-04-27 04:33 | -32.69094 | -177.76883 | 40077 ft | 415 kts | 244° |
| 2026-04-27 04:34 | -32.72086 | -177.82775 | 40080 ft | 417 kts | 244° |
| 2026-04-27 04:34 | -32.75086 | -177.88692 | 40081 ft | 416 kts | 244° |
| 2026-04-27 04:35 | -32.78041 | -177.94532 | 40082 ft | 414 kts | 244° |
| 2026-04-27 04:35 | -32.81002 | -178.00393 | 40079 ft | 412 kts | 244° |
| 2026-04-27 04:36 | -32.83966 | -178.06270 | 40090 ft | 414 kts | 244° |
| 2026-04-27 04:36 | -32.86936 | -178.12166 | 40089 ft | 417 kts | 244° |
| 2026-04-27 04:37 | -32.89917 | -178.18096 | 40090 ft | 417 kts | 244° |
| 2026-04-27 04:37 | -32.92865 | -178.23966 | 40087 ft | 413 kts | 244° |
| 2026-04-27 04:38 | -32.95803 | -178.29832 | 40084 ft | 413 kts | 244° |
| 2026-04-27 04:38 | -32.98756 | -178.35732 | 40090 ft | 416 kts | 244° |
| 2026-04-27 04:39 | -33.01710 | -178.41644 | 40093 ft | 417 kts | 244° |
| 2026-04-27 04:39 | -33.04671 | -178.47578 | 40099 ft | 414 kts | 244° |
| 2026-04-27 04:40 | -33.07607 | -178.53476 | 40097 ft | 412 kts | 244° |
| 2026-04-27 04:40 | -33.10535 | -178.59366 | 40096 ft | 413 kts | 245° |
| 2026-04-27 04:41 | -33.13454 | -178.65246 | 40096 ft | 416 kts | 245° |
| 2026-04-27 04:41 | -33.16411 | -178.71215 | 40105 ft | 418 kts | 244° |